sensor_id;sensor_type;location;lat;lon;timestamp;temperature;humidity
64396;DHT22;50717;53.360;6.290;2023-03-16T00:00:39;3.40;99.90
64396;DHT22;50717;53.360;6.290;2023-03-16T00:03:08;3.40;99.90
64396;DHT22;50717;53.360;6.290;2023-03-16T00:05:34;3.20;99.90
64396;DHT22;50717;53.360;6.290;2023-03-16T00:07:59;3.30;99.90
64396;DHT22;50717;53.360;6.290;2023-03-16T00:10:25;3.30;99.90
64396;DHT22;50717;53.360;6.290;2023-03-16T00:15:21;3.40;99.90
64396;DHT22;50717;53.360;6.290;2023-03-16T00:17:47;3.60;99.90
64396;DHT22;50717;53.360;6.290;2023-03-16T00:20:17;3.60;99.90
64396;DHT22;50717;53.360;6.290;2023-03-16T00:22:43;3.30;99.90
64396;DHT22;50717;53.360;6.290;2023-03-16T00:25:10;3.60;99.90
64396;DHT22;50717;53.360;6.290;2023-03-16T00:27:36;3.70;99.90
64396;DHT22;50717;53.360;6.290;2023-03-16T00:30:02;3.20;99.90
64396;DHT22;50717;53.360;6.290;2023-03-16T00:32:35;3.40;99.90
64396;DHT22;50717;53.360;6.290;2023-03-16T00:35:02;3.50;99.90
64396;DHT22;50717;53.360;6.290;2023-03-16T00:37:28;3.70;99.90
64396;DHT22;50717;53.360;6.290;2023-03-16T00:39:54;3.70;99.90
64396;DHT22;50717;53.360;6.290;2023-03-16T00:44:58;3.40;99.90
64396;DHT22;50717;53.360;6.290;2023-03-16T00:47:26;3.60;99.90
64396;DHT22;50717;53.360;6.290;2023-03-16T00:49:53;3.50;99.90
64396;DHT22;50717;53.360;6.290;2023-03-16T00:52:19;3.50;99.90
64396;DHT22;50717;53.360;6.290;2023-03-16T00:54:47;3.40;99.90
64396;DHT22;50717;53.360;6.290;2023-03-16T00:57:14;3.20;99.90
64396;DHT22;50717;53.360;6.290;2023-03-16T00:59:42;3.40;99.90
64396;DHT22;50717;53.360;6.290;2023-03-16T01:02:08;3.20;99.90
64396;DHT22;50717;53.360;6.290;2023-03-16T01:04:34;3.20;99.90
64396;DHT22;50717;53.360;6.290;2023-03-16T01:07:02;3.40;99.90
64396;DHT22;50717;53.360;6.290;2023-03-16T01:09:27;3.50;99.90
64396;DHT22;50717;53.360;6.290;2023-03-16T01:11:53;3.40;99.90
64396;DHT22;50717;53.360;6.290;2023-03-16T01:14:20;3.50;99.90
64396;DHT22;50717;53.360;6.290;2023-03-16T01:16:47;3.40;99.90
64396;DHT22;50717;53.360;6.290;2023-03-16T01:19:12;3.70;99.90
64396;DHT22;50717;53.360;6.290;2023-03-16T01:21:39;3.50;99.90
64396;DHT22;50717;53.360;6.290;2023-03-16T01:24:07;3.60;99.90
64396;DHT22;50717;53.360;6.290;2023-03-16T01:26:33;3.70;99.90
64396;DHT22;50717;53.360;6.290;2023-03-16T01:31:24;3.30;99.90
64396;DHT22;50717;53.360;6.290;2023-03-16T01:33:50;3.30;99.90
64396;DHT22;50717;53.360;6.290;2023-03-16T01:36:18;3.30;99.90
64396;DHT22;50717;53.360;6.290;2023-03-16T01:38:44;3.70;99.90
64396;DHT22;50717;53.360;6.290;2023-03-16T01:43:40;3.10;99.90
64396;DHT22;50717;53.360;6.290;2023-03-16T01:51:16;3.20;99.90
64396;DHT22;50717;53.360;6.290;2023-03-16T01:53:47;3.30;99.90
64396;DHT22;50717;53.360;6.290;2023-03-16T01:56:17;3.40;99.90
64396;DHT22;50717;53.360;6.290;2023-03-16T01:58:45;3.40;99.90
64396;DHT22;50717;53.360;6.290;2023-03-16T02:01:12;3.20;99.90
64396;DHT22;50717;53.360;6.290;2023-03-16T02:03:39;3.40;99.90
64396;DHT22;50717;53.360;6.290;2023-03-16T02:06:13;3.40;99.90
64396;DHT22;50717;53.360;6.290;2023-03-16T02:08:39;3.60;99.90
64396;DHT22;50717;53.360;6.290;2023-03-16T02:11:08;3.30;99.90
64396;DHT22;50717;53.360;6.290;2023-03-16T02:13:34;3.20;99.90
64396;DHT22;50717;53.360;6.290;2023-03-16T02:16:04;3.10;99.90
64396;DHT22;50717;53.360;6.290;2023-03-16T02:18:30;3.40;99.90
64396;DHT22;50717;53.360;6.290;2023-03-16T02:23:42;3.50;99.90
64396;DHT22;50717;53.360;6.290;2023-03-16T02:26:29;3.50;99.90
64396;DHT22;50717;53.360;6.290;2023-03-16T02:30:02;3.30;99.90
64396;DHT22;50717;53.360;6.290;2023-03-16T02:32:02;3.50;99.90
64396;DHT22;50717;53.360;6.290;2023-03-16T02:36:56;3.50;99.90
64396;DHT22;50717;53.360;6.290;2023-03-16T02:39:23;3.70;99.90
64396;DHT22;50717;53.360;6.290;2023-03-16T02:41:48;3.60;99.90
64396;DHT22;50717;53.360;6.290;2023-03-16T02:44:32;3.70;99.90
64396;DHT22;50717;53.360;6.290;2023-03-16T02:47:04;3.80;99.90
64396;DHT22;50717;53.360;6.290;2023-03-16T02:49:39;3.90;99.90
64396;DHT22;50717;53.360;6.290;2023-03-16T02:52:07;4.00;99.90
64396;DHT22;50717;53.360;6.290;2023-03-16T02:54:33;3.60;99.90
64396;DHT22;50717;53.360;6.290;2023-03-16T02:56:59;3.90;99.90
64396;DHT22;50717;53.360;6.290;2023-03-16T02:59:24;3.90;99.90
64396;DHT22;50717;53.360;6.290;2023-03-16T03:01:50;3.80;99.90
64396;DHT22;50717;53.360;6.290;2023-03-16T03:04:16;4.10;99.90
64396;DHT22;50717;53.360;6.290;2023-03-16T03:06:42;3.90;99.90
64396;DHT22;50717;53.360;6.290;2023-03-16T03:09:08;3.70;99.90
64396;DHT22;50717;53.360;6.290;2023-03-16T03:11:36;3.90;99.90
64396;DHT22;50717;53.360;6.290;2023-03-16T03:14:02;4.00;99.90
64396;DHT22;50717;53.360;6.290;2023-03-16T03:16:28;2.00;99.90
64396;DHT22;50717;53.360;6.290;2023-03-16T03:18:54;3.90;99.90
64396;DHT22;50717;53.360;6.290;2023-03-16T03:21:20;4.30;99.90
64396;DHT22;50717;53.360;6.290;2023-03-16T03:23:46;3.80;99.90
64396;DHT22;50717;53.360;6.290;2023-03-16T03:26:13;4.10;99.90
64396;DHT22;50717;53.360;6.290;2023-03-16T03:28:42;3.90;99.90
64396;DHT22;50717;53.360;6.290;2023-03-16T03:31:18;4.40;99.90
64396;DHT22;50717;53.360;6.290;2023-03-16T03:33:44;3.90;99.90
64396;DHT22;50717;53.360;6.290;2023-03-16T03:36:10;4.00;99.90
64396;DHT22;50717;53.360;6.290;2023-03-16T03:38:36;4.10;99.90
64396;DHT22;50717;53.360;6.290;2023-03-16T03:41:02;4.20;99.90
64396;DHT22;50717;53.360;6.290;2023-03-16T03:43:28;4.00;99.90
64396;DHT22;50717;53.360;6.290;2023-03-16T03:45:58;3.70;99.90
64396;DHT22;50717;53.360;6.290;2023-03-16T03:48:24;4.20;99.90
64396;DHT22;50717;53.360;6.290;2023-03-16T03:50:50;4.00;99.90
64396;DHT22;50717;53.360;6.290;2023-03-16T03:53:16;4.10;99.90
64396;DHT22;50717;53.360;6.290;2023-03-16T03:55:42;4.00;99.90
64396;DHT22;50717;53.360;6.290;2023-03-16T03:58:08;3.80;99.90
64396;DHT22;50717;53.360;6.290;2023-03-16T04:00:34;4.10;99.90
64396;DHT22;50717;53.360;6.290;2023-03-16T04:03:00;4.30;99.90
64396;DHT22;50717;53.360;6.290;2023-03-16T04:05:26;4.10;99.90
64396;DHT22;50717;53.360;6.290;2023-03-16T04:07:55;4.00;99.90
64396;DHT22;50717;53.360;6.290;2023-03-16T04:10:26;3.90;99.90
64396;DHT22;50717;53.360;6.290;2023-03-16T04:12:55;4.00;99.90
64396;DHT22;50717;53.360;6.290;2023-03-16T04:15:21;4.10;99.90
64396;DHT22;50717;53.360;6.290;2023-03-16T04:17:47;4.00;99.90
64396;DHT22;50717;53.360;6.290;2023-03-16T04:20:14;4.10;99.90
64396;DHT22;50717;53.360;6.290;2023-03-16T04:22:44;4.10;99.90
64396;DHT22;50717;53.360;6.290;2023-03-16T04:25:12;4.20;99.90
64396;DHT22;50717;53.360;6.290;2023-03-16T04:27:39;3.90;99.90
64396;DHT22;50717;53.360;6.290;2023-03-16T04:30:11;4.10;99.90
64396;DHT22;50717;53.360;6.290;2023-03-16T04:32:37;4.00;99.90
64396;DHT22;50717;53.360;6.290;2023-03-16T04:35:03;4.20;99.90
64396;DHT22;50717;53.360;6.290;2023-03-16T04:37:29;3.90;99.90
64396;DHT22;50717;53.360;6.290;2023-03-16T04:39:55;4.00;99.90
64396;DHT22;50717;53.360;6.290;2023-03-16T04:42:21;4.20;99.90
64396;DHT22;50717;53.360;6.290;2023-03-16T04:44:47;4.20;99.90
64396;DHT22;50717;53.360;6.290;2023-03-16T04:47:14;4.60;99.90
64396;DHT22;50717;53.360;6.290;2023-03-16T04:49:40;4.10;99.90
64396;DHT22;50717;53.360;6.290;2023-03-16T04:52:07;4.30;99.90
64396;DHT22;50717;53.360;6.290;2023-03-16T04:54:33;4.10;99.90
64396;DHT22;50717;53.360;6.290;2023-03-16T04:56:59;4.50;99.90
64396;DHT22;50717;53.360;6.290;2023-03-16T04:59:25;4.00;99.90
64396;DHT22;50717;53.360;6.290;2023-03-16T05:01:51;4.20;99.90
64396;DHT22;50717;53.360;6.290;2023-03-16T05:06:46;4.20;99.90
64396;DHT22;50717;53.360;6.290;2023-03-16T05:11:38;4.10;99.90
64396;DHT22;50717;53.360;6.290;2023-03-16T05:16:31;4.10;99.90
64396;DHT22;50717;53.360;6.290;2023-03-16T05:18:57;4.10;99.90
64396;DHT22;50717;53.360;6.290;2023-03-16T05:21:24;4.30;99.90
64396;DHT22;50717;53.360;6.290;2023-03-16T05:23:56;3.80;99.90
64396;DHT22;50717;53.360;6.290;2023-03-16T05:26:22;4.10;99.90
64396;DHT22;50717;53.360;6.290;2023-03-16T05:28:50;3.80;99.90
64396;DHT22;50717;53.360;6.290;2023-03-16T05:31:17;4.50;99.90
64396;DHT22;50717;53.360;6.290;2023-03-16T05:33:43;3.80;99.90
64396;DHT22;50717;53.360;6.290;2023-03-16T05:36:09;4.00;99.90
64396;DHT22;50717;53.360;6.290;2023-03-16T05:38:35;4.20;99.90
64396;DHT22;50717;53.360;6.290;2023-03-16T05:41:01;4.00;99.90
64396;DHT22;50717;53.360;6.290;2023-03-16T05:43:29;4.50;99.90
64396;DHT22;50717;53.360;6.290;2023-03-16T05:45:55;4.10;99.90
64396;DHT22;50717;53.360;6.290;2023-03-16T05:48:22;4.00;99.90
64396;DHT22;50717;53.360;6.290;2023-03-16T05:50:51;3.90;99.90
64396;DHT22;50717;53.360;6.290;2023-03-16T05:53:17;4.40;99.90
64396;DHT22;50717;53.360;6.290;2023-03-16T05:55:43;4.10;99.90
64396;DHT22;50717;53.360;6.290;2023-03-16T05:58:08;4.30;99.90
64396;DHT22;50717;53.360;6.290;2023-03-16T06:00:34;4.00;99.90
64396;DHT22;50717;53.360;6.290;2023-03-16T06:03:00;3.70;99.90
64396;DHT22;50717;53.360;6.290;2023-03-16T06:05:26;4.00;99.90
64396;DHT22;50717;53.360;6.290;2023-03-16T06:12:45;3.60;99.90
64396;DHT22;50717;53.360;6.290;2023-03-16T06:15:11;4.20;99.90
64396;DHT22;50717;53.360;6.290;2023-03-16T06:17:38;4.30;99.90
64396;DHT22;50717;53.360;6.290;2023-03-16T06:20:05;4.20;99.90
64396;DHT22;50717;53.360;6.290;2023-03-16T06:22:36;4.10;99.90
64396;DHT22;50717;53.360;6.290;2023-03-16T06:25:03;4.10;99.90
64396;DHT22;50717;53.360;6.290;2023-03-16T06:29:55;4.00;99.90
64396;DHT22;50717;53.360;6.290;2023-03-16T06:32:21;4.00;99.90
64396;DHT22;50717;53.360;6.290;2023-03-16T06:34:47;4.00;99.90
64396;DHT22;50717;53.360;6.290;2023-03-16T06:37:13;4.00;99.90
64396;DHT22;50717;53.360;6.290;2023-03-16T06:39:39;4.20;99.90
64396;DHT22;50717;53.360;6.290;2023-03-16T06:42:04;4.30;99.90
64396;DHT22;50717;53.360;6.290;2023-03-16T06:44:30;4.10;99.90
64396;DHT22;50717;53.360;6.290;2023-03-16T06:46:57;4.30;99.90
64396;DHT22;50717;53.360;6.290;2023-03-16T06:49:23;4.20;99.90
64396;DHT22;50717;53.360;6.290;2023-03-16T06:51:48;4.50;99.90
64396;DHT22;50717;53.360;6.290;2023-03-16T06:54:14;4.20;99.90
64396;DHT22;50717;53.360;6.290;2023-03-16T06:56:40;4.00;99.90
64396;DHT22;50717;53.360;6.290;2023-03-16T06:59:06;4.20;99.90
64396;DHT22;50717;53.360;6.290;2023-03-16T07:01:32;4.50;99.90
64396;DHT22;50717;53.360;6.290;2023-03-16T07:03:57;4.20;99.90
64396;DHT22;50717;53.360;6.290;2023-03-16T07:06:23;4.50;99.90
64396;DHT22;50717;53.360;6.290;2023-03-16T07:08:49;4.40;99.90
64396;DHT22;50717;53.360;6.290;2023-03-16T07:11:14;4.60;99.90
64396;DHT22;50717;53.360;6.290;2023-03-16T07:13:41;4.50;99.90
64396;DHT22;50717;53.360;6.290;2023-03-16T07:16:07;4.30;99.90
64396;DHT22;50717;53.360;6.290;2023-03-16T07:18:33;4.20;99.90
64396;DHT22;50717;53.360;6.290;2023-03-16T07:21:00;4.20;99.90
64396;DHT22;50717;53.360;6.290;2023-03-16T07:23:26;4.70;99.90
64396;DHT22;50717;53.360;6.290;2023-03-16T07:25:51;4.70;99.90
64396;DHT22;50717;53.360;6.290;2023-03-16T07:28:18;4.60;99.90
64396;DHT22;50717;53.360;6.290;2023-03-16T07:30:45;5.00;99.90
64396;DHT22;50717;53.360;6.290;2023-03-16T07:33:11;4.60;99.90
64396;DHT22;50717;53.360;6.290;2023-03-16T07:35:37;4.80;99.90
64396;DHT22;50717;53.360;6.290;2023-03-16T07:38:03;4.40;99.90
64396;DHT22;50717;53.360;6.290;2023-03-16T07:40:28;4.60;99.90
64396;DHT22;50717;53.360;6.290;2023-03-16T07:42:54;4.50;99.90
64396;DHT22;50717;53.360;6.290;2023-03-16T07:45:20;4.70;99.90
64396;DHT22;50717;53.360;6.290;2023-03-16T07:47:46;5.00;99.90
64396;DHT22;50717;53.360;6.290;2023-03-16T07:50:12;4.90;99.90
64396;DHT22;50717;53.360;6.290;2023-03-16T07:52:40;5.00;99.90
64396;DHT22;50717;53.360;6.290;2023-03-16T07:55:06;5.00;99.90
64396;DHT22;50717;53.360;6.290;2023-03-16T07:57:32;5.10;99.90
64396;DHT22;50717;53.360;6.290;2023-03-16T07:59:57;5.00;99.90
64396;DHT22;50717;53.360;6.290;2023-03-16T08:02:24;5.00;99.90
64396;DHT22;50717;53.360;6.290;2023-03-16T08:04:49;4.90;99.90
64396;DHT22;50717;53.360;6.290;2023-03-16T08:07:16;5.10;99.90
64396;DHT22;50717;53.360;6.290;2023-03-16T08:09:42;5.20;99.90
64396;DHT22;50717;53.360;6.290;2023-03-16T08:12:08;5.30;99.90
64396;DHT22;50717;53.360;6.290;2023-03-16T08:14:35;5.10;99.90
64396;DHT22;50717;53.360;6.290;2023-03-16T08:17:02;5.00;99.90
64396;DHT22;50717;53.360;6.290;2023-03-16T08:19:29;5.30;99.90
64396;DHT22;50717;53.360;6.290;2023-03-16T08:21:55;5.30;99.90
64396;DHT22;50717;53.360;6.290;2023-03-16T08:24:22;5.30;99.90
64396;DHT22;50717;53.360;6.290;2023-03-16T08:26:47;5.30;99.90
64396;DHT22;50717;53.360;6.290;2023-03-16T08:29:13;5.20;99.90
64396;DHT22;50717;53.360;6.290;2023-03-16T08:31:39;5.10;99.90
64396;DHT22;50717;53.360;6.290;2023-03-16T08:34:07;5.00;99.90
64396;DHT22;50717;53.360;6.290;2023-03-16T08:36:33;5.30;99.90
64396;DHT22;50717;53.360;6.290;2023-03-16T08:38:58;5.20;99.90
64396;DHT22;50717;53.360;6.290;2023-03-16T08:41:25;5.10;99.90
64396;DHT22;50717;53.360;6.290;2023-03-16T08:43:55;5.00;99.90
64396;DHT22;50717;53.360;6.290;2023-03-16T08:46:22;5.10;99.90
64396;DHT22;50717;53.360;6.290;2023-03-16T08:48:48;5.40;99.90
64396;DHT22;50717;53.360;6.290;2023-03-16T08:51:15;5.20;99.90
64396;DHT22;50717;53.360;6.290;2023-03-16T08:53:42;5.20;99.90
64396;DHT22;50717;53.360;6.290;2023-03-16T08:56:10;5.20;99.90
64396;DHT22;50717;53.360;6.290;2023-03-16T08:58:37;5.20;99.90
64396;DHT22;50717;53.360;6.290;2023-03-16T09:01:04;5.20;99.90
64396;DHT22;50717;53.360;6.290;2023-03-16T09:03:33;5.20;99.90
64396;DHT22;50717;53.360;6.290;2023-03-16T09:06:05;5.10;99.90
64396;DHT22;50717;53.360;6.290;2023-03-16T09:08:32;5.30;99.90
64396;DHT22;50717;53.360;6.290;2023-03-16T09:11:02;5.40;99.90
64396;DHT22;50717;53.360;6.290;2023-03-16T09:13:29;5.20;99.90
64396;DHT22;50717;53.360;6.290;2023-03-16T09:15:55;5.10;99.90
64396;DHT22;50717;53.360;6.290;2023-03-16T09:18:22;5.20;99.90
64396;DHT22;50717;53.360;6.290;2023-03-16T09:20:51;5.20;99.90
64396;DHT22;50717;53.360;6.290;2023-03-16T09:25:44;5.30;99.90
64396;DHT22;50717;53.360;6.290;2023-03-16T09:28:10;5.30;99.90
64396;DHT22;50717;53.360;6.290;2023-03-16T09:30:36;5.40;99.90
64396;DHT22;50717;53.360;6.290;2023-03-16T09:33:02;5.20;99.90
64396;DHT22;50717;53.360;6.290;2023-03-16T09:35:28;5.50;99.90
64396;DHT22;50717;53.360;6.290;2023-03-16T09:37:55;5.50;99.90
64396;DHT22;50717;53.360;6.290;2023-03-16T09:40:24;5.40;99.90
64396;DHT22;50717;53.360;6.290;2023-03-16T09:48:14;5.90;99.90
64396;DHT22;50717;53.360;6.290;2023-03-16T09:50:41;5.50;99.90
64396;DHT22;50717;53.360;6.290;2023-03-16T09:53:26;5.90;99.90
64396;DHT22;50717;53.360;6.290;2023-03-16T09:56:26;6.30;99.90
64396;DHT22;50717;53.360;6.290;2023-03-16T09:58:54;6.00;99.90
64396;DHT22;50717;53.360;6.290;2023-03-16T10:04:25;6.20;99.90
64396;DHT22;50717;53.360;6.290;2023-03-16T10:09:36;6.00;99.90
64396;DHT22;50717;53.360;6.290;2023-03-16T10:12:04;6.10;99.90
64396;DHT22;50717;53.360;6.290;2023-03-16T10:14:53;6.20;99.90
64396;DHT22;50717;53.360;6.290;2023-03-16T10:17:27;6.20;99.90
64396;DHT22;50717;53.360;6.290;2023-03-16T10:20:07;6.30;99.90
64396;DHT22;50717;53.360;6.290;2023-03-16T10:22:38;6.60;99.90
64396;DHT22;50717;53.360;6.290;2023-03-16T10:27:52;6.10;99.90
64396;DHT22;50717;53.360;6.290;2023-03-16T10:30:35;6.30;99.90
64396;DHT22;50717;53.360;6.290;2023-03-16T10:33:04;6.10;99.90
64396;DHT22;50717;53.360;6.290;2023-03-16T10:43:53;6.40;99.90
64396;DHT22;50717;53.360;6.290;2023-03-16T10:46:24;6.30;99.90
64396;DHT22;50717;53.360;6.290;2023-03-16T10:48:55;6.00;99.90
64396;DHT22;50717;53.360;6.290;2023-03-16T10:51:32;6.10;99.90
64396;DHT22;50717;53.360;6.290;2023-03-16T10:54:37;5.80;99.90
64396;DHT22;50717;53.360;6.290;2023-03-16T10:57:33;6.10;99.90
64396;DHT22;50717;53.360;6.290;2023-03-16T11:00:19;5.90;99.90
64396;DHT22;50717;53.360;6.290;2023-03-16T11:02:47;5.10;99.90
64396;DHT22;50717;53.360;6.290;2023-03-16T11:07:57;6.10;99.90
64396;DHT22;50717;53.360;6.290;2023-03-16T11:10:31;5.80;99.90
64396;DHT22;50717;53.360;6.290;2023-03-16T11:13:16;6.40;99.90
64396;DHT22;50717;53.360;6.290;2023-03-16T11:18:27;6.40;99.90
64396;DHT22;50717;53.360;6.290;2023-03-16T11:20:55;6.70;99.90
64396;DHT22;50717;53.360;6.290;2023-03-16T11:23:32;6.50;99.90
64396;DHT22;50717;53.360;6.290;2023-03-16T11:26:02;6.70;99.90
64396;DHT22;50717;53.360;6.290;2023-03-16T11:28:36;6.50;99.90
64396;DHT22;50717;53.360;6.290;2023-03-16T11:33:35;6.70;99.90
64396;DHT22;50717;53.360;6.290;2023-03-16T11:38:58;6.50;99.90
64396;DHT22;50717;53.360;6.290;2023-03-16T11:41:57;6.90;99.90
64396;DHT22;50717;53.360;6.290;2023-03-16T11:47:31;7.10;99.90
64396;DHT22;50717;53.360;6.290;2023-03-16T11:53:04;7.00;99.90
64396;DHT22;50717;53.360;6.290;2023-03-16T12:01:08;7.00;99.90
64396;DHT22;50717;53.360;6.290;2023-03-16T12:03:49;7.30;99.90
64396;DHT22;50717;53.360;6.290;2023-03-16T12:06:57;7.50;99.90
64396;DHT22;50717;53.360;6.290;2023-03-16T12:15:34;7.80;99.90
64396;DHT22;50717;53.360;6.290;2023-03-16T12:17:41;7.60;99.90
64396;DHT22;50717;53.360;6.290;2023-03-16T12:20:18;7.70;99.90
64396;DHT22;50717;53.360;6.290;2023-03-16T12:22:54;9.00;99.90
64396;DHT22;50717;53.360;6.290;2023-03-16T12:25:30;8.40;99.90
64396;DHT22;50717;53.360;6.290;2023-03-16T12:27:59;8.40;99.90
64396;DHT22;50717;53.360;6.290;2023-03-16T12:33:03;8.60;99.90
64396;DHT22;50717;53.360;6.290;2023-03-16T12:35:39;8.70;99.90
64396;DHT22;50717;53.360;6.290;2023-03-16T12:48:29;8.90;99.90
64396;DHT22;50717;53.360;6.290;2023-03-16T12:50:58;8.90;99.90
64396;DHT22;50717;53.360;6.290;2023-03-16T12:56:12;9.00;99.90
64396;DHT22;50717;53.360;6.290;2023-03-16T12:58:49;8.70;99.90
64396;DHT22;50717;53.360;6.290;2023-03-16T13:01:25;8.60;99.90
64396;DHT22;50717;53.360;6.290;2023-03-16T13:03:59;8.60;99.90
64396;DHT22;50717;53.360;6.290;2023-03-16T13:06:31;8.80;99.90
64396;DHT22;50717;53.360;6.290;2023-03-16T13:08:58;8.60;99.90
64396;DHT22;50717;53.360;6.290;2023-03-16T13:11:26;8.80;99.90
64396;DHT22;50717;53.360;6.290;2023-03-16T13:14:05;8.40;99.90
64396;DHT22;50717;53.360;6.290;2023-03-16T13:16:35;8.40;99.90
64396;DHT22;50717;53.360;6.290;2023-03-16T13:21:47;8.80;99.90
64396;DHT22;50717;53.360;6.290;2023-03-16T13:24:35;9.00;99.90
64396;DHT22;50717;53.360;6.290;2023-03-16T13:27:05;8.70;99.90
64396;DHT22;50717;53.360;6.290;2023-03-16T13:29:39;9.20;99.90
64396;DHT22;50717;53.360;6.290;2023-03-16T13:32:16;9.40;99.90
64396;DHT22;50717;53.360;6.290;2023-03-16T13:34:52;9.30;99.90
64396;DHT22;50717;53.360;6.290;2023-03-16T13:37:21;9.00;99.90
64396;DHT22;50717;53.360;6.290;2023-03-16T13:39:53;9.40;99.90
64396;DHT22;50717;53.360;6.290;2023-03-16T13:42:22;9.90;99.90
64396;DHT22;50717;53.360;6.290;2023-03-16T13:44:51;9.70;99.90
64396;DHT22;50717;53.360;6.290;2023-03-16T13:47:17;9.90;99.90
64396;DHT22;50717;53.360;6.290;2023-03-16T13:49:57;9.90;99.90
64396;DHT22;50717;53.360;6.290;2023-03-16T13:52:30;9.80;99.90
64396;DHT22;50717;53.360;6.290;2023-03-16T13:54:58;9.70;99.90
64396;DHT22;50717;53.360;6.290;2023-03-16T13:57:34;9.60;99.90
64396;DHT22;50717;53.360;6.290;2023-03-16T14:02:41;9.60;99.90
64396;DHT22;50717;53.360;6.290;2023-03-16T14:05:33;9.30;99.90
64396;DHT22;50717;53.360;6.290;2023-03-16T14:08:00;9.40;99.90
64396;DHT22;50717;53.360;6.290;2023-03-16T14:10:35;9.30;99.90
64396;DHT22;50717;53.360;6.290;2023-03-16T14:15:56;9.20;99.90
64396;DHT22;50717;53.360;6.290;2023-03-16T14:18:46;9.40;99.90
64396;DHT22;50717;53.360;6.290;2023-03-16T14:21:21;9.00;99.90
64396;DHT22;50717;53.360;6.290;2023-03-16T14:23:59;9.30;99.90
64396;DHT22;50717;53.360;6.290;2023-03-16T14:26:26;9.50;99.90
64396;DHT22;50717;53.360;6.290;2023-03-16T14:29:24;9.20;99.90
64396;DHT22;50717;53.360;6.290;2023-03-16T14:31:51;9.50;99.90
64396;DHT22;50717;53.360;6.290;2023-03-16T14:36:47;9.50;99.90
64396;DHT22;50717;53.360;6.290;2023-03-16T14:39:15;9.70;99.90
64396;DHT22;50717;53.360;6.290;2023-03-16T14:41:42;9.60;99.90
64396;DHT22;50717;53.360;6.290;2023-03-16T14:44:29;9.50;99.90
64396;DHT22;50717;53.360;6.290;2023-03-16T14:46:56;9.70;99.90
64396;DHT22;50717;53.360;6.290;2023-03-16T14:51:56;9.90;99.90
64396;DHT22;50717;53.360;6.290;2023-03-16T14:54:23;10.00;99.90
64396;DHT22;50717;53.360;6.290;2023-03-16T14:56:52;10.00;99.90
64396;DHT22;50717;53.360;6.290;2023-03-16T14:59:19;10.00;99.90
64396;DHT22;50717;53.360;6.290;2023-03-16T15:01:46;10.00;99.90
64396;DHT22;50717;53.360;6.290;2023-03-16T15:04:14;9.90;99.90
64396;DHT22;50717;53.360;6.290;2023-03-16T15:06:43;10.10;99.90
64396;DHT22;50717;53.360;6.290;2023-03-16T15:09:38;9.60;99.90
64396;DHT22;50717;53.360;6.290;2023-03-16T15:12:18;9.90;99.90
64396;DHT22;50717;53.360;6.290;2023-03-16T15:14:47;9.70;99.90
64396;DHT22;50717;53.360;6.290;2023-03-16T15:17:31;9.60;99.90
64396;DHT22;50717;53.360;6.290;2023-03-16T15:19:57;9.50;99.90
64396;DHT22;50717;53.360;6.290;2023-03-16T15:22:35;9.90;99.90
64396;DHT22;50717;53.360;6.290;2023-03-16T15:28:26;9.60;99.90
64396;DHT22;50717;53.360;6.290;2023-03-16T15:30:53;9.80;99.90
64396;DHT22;50717;53.360;6.290;2023-03-16T15:33:19;9.80;99.90
64396;DHT22;50717;53.360;6.290;2023-03-16T15:35:46;9.70;99.90
64396;DHT22;50717;53.360;6.290;2023-03-16T15:38:27;10.00;99.90
64396;DHT22;50717;53.360;6.290;2023-03-16T15:40:54;9.80;99.90
64396;DHT22;50717;53.360;6.290;2023-03-16T15:43:21;9.80;99.90
64396;DHT22;50717;53.360;6.290;2023-03-16T15:45:48;10.00;99.90
64396;DHT22;50717;53.360;6.290;2023-03-16T15:48:14;9.80;99.90
64396;DHT22;50717;53.360;6.290;2023-03-16T15:50:45;9.90;99.90
64396;DHT22;50717;53.360;6.290;2023-03-16T15:53:24;9.90;99.90
64396;DHT22;50717;53.360;6.290;2023-03-16T15:55:53;10.00;99.90
64396;DHT22;50717;53.360;6.290;2023-03-16T15:58:24;10.20;99.90
64396;DHT22;50717;53.360;6.290;2023-03-16T16:00:53;9.90;99.90
64396;DHT22;50717;53.360;6.290;2023-03-16T16:03:20;9.60;99.90
64396;DHT22;50717;53.360;6.290;2023-03-16T16:05:46;10.00;99.90
64396;DHT22;50717;53.360;6.290;2023-03-16T16:08:12;10.00;99.90
64396;DHT22;50717;53.360;6.290;2023-03-16T16:10:39;9.60;99.90
64396;DHT22;50717;53.360;6.290;2023-03-16T16:13:12;9.60;99.90
64396;DHT22;50717;53.360;6.290;2023-03-16T16:15:39;9.90;99.90
64396;DHT22;50717;53.360;6.290;2023-03-16T16:18:31;9.80;99.90
64396;DHT22;50717;53.360;6.290;2023-03-16T16:21:00;10.00;99.90
64396;DHT22;50717;53.360;6.290;2023-03-16T16:23:27;10.00;99.90
64396;DHT22;50717;53.360;6.290;2023-03-16T16:25:59;10.20;99.90
64396;DHT22;50717;53.360;6.290;2023-03-16T16:28:28;10.00;99.90
64396;DHT22;50717;53.360;6.290;2023-03-16T16:30:55;9.70;99.90
64396;DHT22;50717;53.360;6.290;2023-03-16T16:33:25;10.00;99.90
64396;DHT22;50717;53.360;6.290;2023-03-16T16:35:52;9.80;99.90
64396;DHT22;50717;53.360;6.290;2023-03-16T16:38:18;9.80;99.90
64396;DHT22;50717;53.360;6.290;2023-03-16T16:40:44;9.80;99.90
64396;DHT22;50717;53.360;6.290;2023-03-16T16:43:35;9.60;99.90
64396;DHT22;50717;53.360;6.290;2023-03-16T16:46:04;9.80;99.90
64396;DHT22;50717;53.360;6.290;2023-03-16T16:48:34;9.90;99.90
64396;DHT22;50717;53.360;6.290;2023-03-16T16:51:02;9.70;99.90
64396;DHT22;50717;53.360;6.290;2023-03-16T16:53:28;9.30;99.90
64396;DHT22;50717;53.360;6.290;2023-03-16T16:55:54;9.90;99.90
64396;DHT22;50717;53.360;6.290;2023-03-16T16:58:20;10.10;99.90
64396;DHT22;50717;53.360;6.290;2023-03-16T17:00:50;9.40;99.90
64396;DHT22;50717;53.360;6.290;2023-03-16T17:03:25;9.60;99.90
64396;DHT22;50717;53.360;6.290;2023-03-16T17:05:53;9.50;99.90
64396;DHT22;50717;53.360;6.290;2023-03-16T17:08:19;9.50;99.90
64396;DHT22;50717;53.360;6.290;2023-03-16T17:10:45;9.60;99.90
64396;DHT22;50717;53.360;6.290;2023-03-16T17:13:36;9.60;99.90
64396;DHT22;50717;53.360;6.290;2023-03-16T17:16:04;9.20;99.90
64396;DHT22;50717;53.360;6.290;2023-03-16T17:18:30;9.20;99.90
64396;DHT22;50717;53.360;6.290;2023-03-16T17:20:58;9.50;99.90
64396;DHT22;50717;53.360;6.290;2023-03-16T17:23:29;9.00;99.90
64396;DHT22;50717;53.360;6.290;2023-03-16T17:25:59;8.90;99.90
64396;DHT22;50717;53.360;6.290;2023-03-16T17:28:27;9.00;99.90
64396;DHT22;50717;53.360;6.290;2023-03-16T17:30:54;8.80;99.90
64396;DHT22;50717;53.360;6.290;2023-03-16T17:33:22;9.00;99.90
64396;DHT22;50717;53.360;6.290;2023-03-16T17:35:49;8.90;99.90
64396;DHT22;50717;53.360;6.290;2023-03-16T17:38:20;8.40;99.90
64396;DHT22;50717;53.360;6.290;2023-03-16T17:40:47;8.50;99.90
64396;DHT22;50717;53.360;6.290;2023-03-16T17:43:18;8.60;99.90
64396;DHT22;50717;53.360;6.290;2023-03-16T17:45:46;8.30;99.90
64396;DHT22;50717;53.360;6.290;2023-03-16T17:48:14;8.60;99.90
64396;DHT22;50717;53.360;6.290;2023-03-16T17:50:42;8.50;99.90
64396;DHT22;50717;53.360;6.290;2023-03-16T17:53:11;8.20;99.90
64396;DHT22;50717;53.360;6.290;2023-03-16T17:55:37;8.30;99.90
64396;DHT22;50717;53.360;6.290;2023-03-16T17:58:03;8.10;99.90